エドモントン の空港の天気 - METARとTAF

エドモントン国際空港 ( CYEG / YEG ) - カナダ アルバータ州Edmonton Capital Region
飛行場実況気象(Metar)
観測時間05/26 18:00 MDT (05/27 00:00 UTC)
風向・風速西 9m/s 瞬間風速13m/s
視程10km以上
天気現象
少しの雲 雲底高度 1220m
少しの雲 雲底高度 2130m
全天の4割程度の雲 雲底高度 3350m
全天の8割程度の雲 雲底高度 7920m
気温12℃
湿度50%
気圧1012.7hPa
METARCYEG 270000Z 27018G25KT 20SM FEW040TCU FEW070 SCT110 BKN260 12/02 A2987 RMK TCU1AC1AC2CI2 TCU TR TCU SH DIST SW SLP127 DENSITY ALT 2700FT
過去の天気等 Google飛行場航空写真 Wunderground天気予報

過去48時間のMETAR

飛行場予報(TAF)
発表時間: 5/26 17:38 MDT (5/26 23:38 UTC)
予報対象時間: 26日18時 MDT ~ 27日18時 MDT
風向・風速西 6m/s 瞬間風速 11m/s
視程10km以上
全天の4割程度の雲 雲底高度 2130m
全天の4割程度の雲 雲底高度 3350m
26日18時 MDT ~ 26日21時 MDT に一時的に
風向・風速不定 10m/s 瞬間風速 15m/s
視程10km以上
天気現象弱いしゅう雨 周辺で雷
全天の8割程度の積乱雲 雲底高度 1520m
全天の8割程度の雲 雲底高度 3350m
26日21時 MDT から
風向・風速西 5m/s
視程10km以上
少しの雲 雲底高度 2130m
27日9時 MDT ~ 27日11時 MDT に徐々に
風向・風速西北西 8m/s 瞬間風速 13m/s
27日14時 MDT から
風向・風速北西 8m/s 瞬間風速 13m/s
視程10km以上
少しの雲 雲底高度 1520m
全天の8割程度の雲 雲底高度 2130m
TAF CYEG 262338Z 2700/2724 28012G22KT P6SM SCT070 SCT110
TEMPO 2700/2703 VRB20G30KT P6SM -SHRA VCTS BKN050CB BKN110
FM270300 28010KT P6SM FEW070
BECMG 2715/2717 30015G25KT
FM272000 31015G25KT P6SM FEW050 BKN070 RMK NXT FCST BY 270300Z